sensor_id;sensor_type;location;lat;lon;timestamp;pressure;altitude;pressure_sealevel;temperature;humidity
15678;BME280;7939;50.814;6.368;2023-09-18T00:00:08;99040.16;;;24.28;61.91
15678;BME280;7939;50.814;6.368;2023-09-18T00:02:37;99035.88;;;24.27;61.69
15678;BME280;7939;50.814;6.368;2023-09-18T00:05:05;99034.19;;;24.26;61.52
15678;BME280;7939;50.814;6.368;2023-09-18T00:07:31;99022.06;;;24.25;61.72
15678;BME280;7939;50.814;6.368;2023-09-18T00:09:58;99016.97;;;24.23;62.02
15678;BME280;7939;50.814;6.368;2023-09-18T00:12:26;99004.00;;;24.21;62.13
15678;BME280;7939;50.814;6.368;2023-09-18T00:14:53;99006.75;;;24.20;62.21
15678;BME280;7939;50.814;6.368;2023-09-18T00:17:19;98998.16;;;24.18;61.91
15678;BME280;7939;50.814;6.368;2023-09-18T00:19:48;98998.25;;;24.16;61.88
15678;BME280;7939;50.814;6.368;2023-09-18T00:22:17;98994.00;;;24.15;61.70
15678;BME280;7939;50.814;6.368;2023-09-18T00:24:43;98982.72;;;24.15;61.90
15678;BME280;7939;50.814;6.368;2023-09-18T00:27:10;98981.88;;;24.14;61.94
15678;BME280;7939;50.814;6.368;2023-09-18T00:29:39;98984.56;;;24.13;62.11
15678;BME280;7939;50.814;6.368;2023-09-18T00:32:06;98980.28;;;24.12;61.96
15678;BME280;7939;50.814;6.368;2023-09-18T00:34:33;98982.06;;;24.11;62.01
15678;BME280;7939;50.814;6.368;2023-09-18T00:37:00;98968.31;;;24.09;61.50
15678;BME280;7939;50.814;6.368;2023-09-18T00:39:26;98971.84;;;24.08;61.90
15678;BME280;7939;50.814;6.368;2023-09-18T00:41:53;98976.25;;;24.08;61.61
15678;BME280;7939;50.814;6.368;2023-09-18T00:44:20;98964.94;;;24.07;62.00
15678;BME280;7939;50.814;6.368;2023-09-18T00:46:48;98958.88;;;24.07;61.98
15678;BME280;7939;50.814;6.368;2023-09-18T00:49:15;98954.59;;;24.06;61.85
15678;BME280;7939;50.814;6.368;2023-09-18T00:51:43;98968.59;;;24.05;62.07
15678;BME280;7939;50.814;6.368;2023-09-18T00:54:10;98972.16;;;24.04;61.99
15678;BME280;7939;50.814;6.368;2023-09-18T00:56:37;98953.06;;;24.03;61.98
15678;BME280;7939;50.814;6.368;2023-09-18T00:59:04;98963.63;;;24.02;62.21
15678;BME280;7939;50.814;6.368;2023-09-18T01:01:31;98961.91;;;24.01;61.97
15678;BME280;7939;50.814;6.368;2023-09-18T01:04:00;98956.81;;;23.99;62.05
15678;BME280;7939;50.814;6.368;2023-09-18T01:06:26;98955.97;;;23.99;62.11
15678;BME280;7939;50.814;6.368;2023-09-18T01:08:56;98944.69;;;23.98;62.14
15678;BME280;7939;50.814;6.368;2023-09-18T01:11:29;98948.38;;;23.95;62.32
15678;BME280;7939;50.814;6.368;2023-09-18T01:14:03;98941.44;;;23.94;61.99
15678;BME280;7939;50.814;6.368;2023-09-18T01:16:37;98942.41;;;23.93;62.18
15678;BME280;7939;50.814;6.368;2023-09-18T01:19:08;98951.16;;;23.92;62.34
15678;BME280;7939;50.814;6.368;2023-09-18T01:21:34;98936.47;;;23.91;61.84
15678;BME280;7939;50.814;6.368;2023-09-18T01:24:03;98930.41;;;23.91;61.86
15678;BME280;7939;50.814;6.368;2023-09-18T01:26:30;98922.69;;;23.89;62.01
15678;BME280;7939;50.814;6.368;2023-09-18T01:28:56;98927.91;;;23.89;62.22
15678;BME280;7939;50.814;6.368;2023-09-18T01:31:23;98915.78;;;23.88;62.15
15678;BME280;7939;50.814;6.368;2023-09-18T01:33:52;98915.06;;;23.86;61.80
15678;BME280;7939;50.814;6.368;2023-09-18T01:36:19;98909.00;;;23.86;62.01
15678;BME280;7939;50.814;6.368;2023-09-18T01:38:46;98897.84;;;23.84;62.08
15678;BME280;7939;50.814;6.368;2023-09-18T01:41:16;98902.94;;;23.85;62.35
15678;BME280;7939;50.814;6.368;2023-09-18T01:43:43;98901.41;;;23.83;62.55
15678;BME280;7939;50.814;6.368;2023-09-18T01:46:11;98901.47;;;23.81;62.25
15678;BME280;7939;50.814;6.368;2023-09-18T01:48:38;98904.09;;;23.81;62.33
15678;BME280;7939;50.814;6.368;2023-09-18T01:51:13;98894.59;;;23.80;62.40
15678;BME280;7939;50.814;6.368;2023-09-18T01:53:40;98887.72;;;23.79;62.22
15678;BME280;7939;50.814;6.368;2023-09-18T01:56:06;98899.09;;;23.78;62.21
15678;BME280;7939;50.814;6.368;2023-09-18T01:58:35;98897.31;;;23.79;62.25
15678;BME280;7939;50.814;6.368;2023-09-18T02:01:01;98910.47;;;23.77;62.21
15678;BME280;7939;50.814;6.368;2023-09-18T02:03:28;98917.47;;;23.77;62.54
15678;BME280;7939;50.814;6.368;2023-09-18T02:05:55;98920.16;;;23.75;62.42
15678;BME280;7939;50.814;6.368;2023-09-18T02:08:20;98915.06;;;23.74;62.52
15678;BME280;7939;50.814;6.368;2023-09-18T02:10:47;98911.63;;;23.73;62.31
15678;BME280;7939;50.814;6.368;2023-09-18T02:13:14;98913.38;;;23.73;62.37
15678;BME280;7939;50.814;6.368;2023-09-18T02:15:43;98908.06;;;23.74;62.42
15678;BME280;7939;50.814;6.368;2023-09-18T02:18:09;98902.84;;;23.74;62.16
15678;BME280;7939;50.814;6.368;2023-09-18T02:20:40;98899.41;;;23.74;62.20
15678;BME280;7939;50.814;6.368;2023-09-18T02:23:07;98894.19;;;23.74;62.10
15678;BME280;7939;50.814;6.368;2023-09-18T02:25:34;98883.75;;;23.74;62.13
15678;BME280;7939;50.814;6.368;2023-09-18T02:28:00;98886.34;;;23.74;62.01
15678;BME280;7939;50.814;6.368;2023-09-18T02:30:27;98867.25;;;23.73;61.88
15678;BME280;7939;50.814;6.368;2023-09-18T02:32:55;98863.00;;;23.72;62.06
15678;BME280;7939;50.814;6.368;2023-09-18T02:35:21;98857.78;;;23.72;62.02
15678;BME280;7939;50.814;6.368;2023-09-18T02:37:48;98863.94;;;23.71;62.25
15678;BME280;7939;50.814;6.368;2023-09-18T02:40:15;98855.16;;;23.72;62.19
15678;BME280;7939;50.814;6.368;2023-09-18T02:42:41;98849.22;;;23.70;62.22
15678;BME280;7939;50.814;6.368;2023-09-18T02:45:08;98841.41;;;23.70;62.12
15678;BME280;7939;50.814;6.368;2023-09-18T02:47:36;98840.53;;;23.69;62.21
15678;BME280;7939;50.814;6.368;2023-09-18T02:50:08;98823.34;;;23.67;62.57
15678;BME280;7939;50.814;6.368;2023-09-18T02:52:36;98823.34;;;23.67;62.68
15678;BME280;7939;50.814;6.368;2023-09-18T02:55:03;98819.78;;;23.68;62.85
15678;BME280;7939;50.814;6.368;2023-09-18T02:57:30;98810.28;;;23.67;62.82
15678;BME280;7939;50.814;6.368;2023-09-18T02:59:57;98803.28;;;23.67;63.17
15678;BME280;7939;50.814;6.368;2023-09-18T03:02:24;98803.53;;;23.64;63.08
15678;BME280;7939;50.814;6.368;2023-09-18T03:04:50;98796.53;;;23.65;63.31
15678;BME280;7939;50.814;6.368;2023-09-18T03:07:18;98780.13;;;23.63;63.54
15678;BME280;7939;50.814;6.368;2023-09-18T03:09:45;98776.69;;;23.62;63.62
15678;BME280;7939;50.814;6.368;2023-09-18T03:12:12;98779.31;;;23.62;63.38
15678;BME280;7939;50.814;6.368;2023-09-18T03:14:38;98768.88;;;23.62;63.41
15678;BME280;7939;50.814;6.368;2023-09-18T03:17:05;98770.56;;;23.63;63.22
15678;BME280;7939;50.814;6.368;2023-09-18T03:19:31;98755.00;;;23.62;63.85
15678;BME280;7939;50.814;6.368;2023-09-18T03:21:58;98756.66;;;23.63;63.44
15678;BME280;7939;50.814;6.368;2023-09-18T03:24:26;98741.94;;;23.62;63.73
15678;BME280;7939;50.814;6.368;2023-09-18T03:26:53;98738.50;;;23.61;63.40
15678;BME280;7939;50.814;6.368;2023-09-18T03:29:19;98738.41;;;23.63;63.51
15678;BME280;7939;50.814;6.368;2023-09-18T03:31:46;98748.81;;;23.63;63.42
15678;BME280;7939;50.814;6.368;2023-09-18T03:34:13;98767.94;;;23.63;63.23
15678;BME280;7939;50.814;6.368;2023-09-18T03:36:39;98769.69;;;23.63;63.16
15678;BME280;7939;50.814;6.368;2023-09-18T03:39:06;98772.31;;;23.63;63.31
15678;BME280;7939;50.814;6.368;2023-09-18T03:41:34;98763.56;;;23.64;62.99
15678;BME280;7939;50.814;6.368;2023-09-18T03:44:00;98766.16;;;23.64;63.40
15678;BME280;7939;50.814;6.368;2023-09-18T03:46:27;98777.53;;;23.63;63.21
15678;BME280;7939;50.814;6.368;2023-09-18T03:48:54;98780.13;;;23.63;63.08
15678;BME280;7939;50.814;6.368;2023-09-18T03:51:22;98761.88;;;23.63;63.25
15678;BME280;7939;50.814;6.368;2023-09-18T03:53:49;98754.16;;;23.61;63.37
15678;BME280;7939;50.814;6.368;2023-09-18T03:56:16;98766.25;;;23.62;63.09
15678;BME280;7939;50.814;6.368;2023-09-18T03:58:44;98758.50;;;23.61;63.42
15678;BME280;7939;50.814;6.368;2023-09-18T04:01:14;98758.50;;;23.61;63.25
15678;BME280;7939;50.814;6.368;2023-09-18T04:03:41;98769.91;;;23.60;63.42
15678;BME280;7939;50.814;6.368;2023-09-18T04:06:07;98759.47;;;23.60;63.02
15678;BME280;7939;50.814;6.368;2023-09-18T04:08:34;98761.25;;;23.59;63.15
15678;BME280;7939;50.814;6.368;2023-09-18T04:11:01;98762.19;;;23.58;63.22
15678;BME280;7939;50.814;6.368;2023-09-18T04:13:29;98762.25;;;23.57;63.43
15678;BME280;7939;50.814;6.368;2023-09-18T04:15:57;98756.22;;;23.56;63.52
15678;BME280;7939;50.814;6.368;2023-09-18T04:18:26;98756.34;;;23.55;63.51
15678;BME280;7939;50.814;6.368;2023-09-18T04:20:52;98739.84;;;23.54;63.38
15678;BME280;7939;50.814;6.368;2023-09-18T04:23:21;98737.34;;;23.53;62.94
15678;BME280;7939;50.814;6.368;2023-09-18T04:25:49;98726.19;;;23.51;62.93
15678;BME280;7939;50.814;6.368;2023-09-18T04:28:17;98745.38;;;23.50;63.06
15678;BME280;7939;50.814;6.368;2023-09-18T04:30:44;98754.03;;;23.50;63.06
15678;BME280;7939;50.814;6.368;2023-09-18T04:33:12;98745.50;;;23.48;62.76
15678;BME280;7939;50.814;6.368;2023-09-18T04:35:39;98739.34;;;23.49;62.88
15678;BME280;7939;50.814;6.368;2023-09-18T04:38:06;98740.28;;;23.48;62.65
15678;BME280;7939;50.814;6.368;2023-09-18T04:40:35;98733.41;;;23.47;62.74
15678;BME280;7939;50.814;6.368;2023-09-18T04:43:02;98749.16;;;23.46;62.54
15678;BME280;7939;50.814;6.368;2023-09-18T04:45:30;98738.81;;;23.44;62.80
15678;BME280;7939;50.814;6.368;2023-09-18T04:47:57;98727.56;;;23.43;62.66
15678;BME280;7939;50.814;6.368;2023-09-18T04:50:25;98722.34;;;23.43;62.72
15678;BME280;7939;50.814;6.368;2023-09-18T04:52:52;98718.91;;;23.43;62.79
15678;BME280;7939;50.814;6.368;2023-09-18T04:55:20;98730.28;;;23.42;62.64
15678;BME280;7939;50.814;6.368;2023-09-18T04:57:46;98720.69;;;23.42;62.85
15678;BME280;7939;50.814;6.368;2023-09-18T05:00:14;98701.59;;;23.42;62.72
15678;BME280;7939;50.814;6.368;2023-09-18T05:02:41;98713.78;;;23.41;62.73
15678;BME280;7939;50.814;6.368;2023-09-18T05:05:08;98723.41;;;23.41;62.61
15678;BME280;7939;50.814;6.368;2023-09-18T05:07:36;98725.19;;;23.40;62.35
15678;BME280;7939;50.814;6.368;2023-09-18T05:10:04;98735.59;;;23.40;62.48
15678;BME280;7939;50.814;6.368;2023-09-18T05:12:31;98739.16;;;23.39;62.68
15678;BME280;7939;50.814;6.368;2023-09-18T05:14:57;98744.38;;;23.39;62.68
15678;BME280;7939;50.814;6.368;2023-09-18T05:17:39;98759.19;;;23.39;62.69
15678;BME280;7939;50.814;6.368;2023-09-18T05:20:08;98753.13;;;23.38;62.84
15678;BME280;7939;50.814;6.368;2023-09-18T05:22:38;98736.75;;;23.36;62.36
15678;BME280;7939;50.814;6.368;2023-09-18T05:25:05;98761.16;;;23.35;62.63
15678;BME280;7939;50.814;6.368;2023-09-18T05:27:32;98784.63;;;23.35;62.43
15678;BME280;7939;50.814;6.368;2023-09-18T05:29:59;98790.78;;;23.34;62.53
15678;BME280;7939;50.814;6.368;2023-09-18T05:32:25;98775.34;;;23.31;62.73
15678;BME280;7939;50.814;6.368;2023-09-18T05:34:52;98761.56;;;23.29;62.52
15678;BME280;7939;50.814;6.368;2023-09-18T05:37:19;98739.78;;;23.30;62.72
15678;BME280;7939;50.814;6.368;2023-09-18T05:39:47;98739.78;;;23.30;62.50
15678;BME280;7939;50.814;6.368;2023-09-18T05:42:14;98734.56;;;23.30;62.47
15678;BME280;7939;50.814;6.368;2023-09-18T05:44:41;98739.88;;;23.29;62.79
15678;BME280;7939;50.814;6.368;2023-09-18T05:47:08;98748.53;;;23.29;62.91
15678;BME280;7939;50.814;6.368;2023-09-18T05:49:34;98761.81;;;23.26;62.45
15678;BME280;7939;50.814;6.368;2023-09-18T05:52:01;98768.69;;;23.27;62.67
15678;BME280;7939;50.814;6.368;2023-09-18T05:54:28;98765.44;;;23.24;62.54
15678;BME280;7939;50.814;6.368;2023-09-18T05:56:56;98760.97;;;23.26;62.78
15678;BME280;7939;50.814;6.368;2023-09-18T05:59:22;98761.88;;;23.25;62.78
15678;BME280;7939;50.814;6.368;2023-09-18T06:01:49;98773.13;;;23.25;62.28
15678;BME280;7939;50.814;6.368;2023-09-18T06:04:16;98774.91;;;23.25;62.83
15678;BME280;7939;50.814;6.368;2023-09-18T06:06:43;98773.13;;;23.25;62.48
15678;BME280;7939;50.814;6.368;2023-09-18T06:09:10;98759.28;;;23.25;62.52
15678;BME280;7939;50.814;6.368;2023-09-18T06:11:36;98757.50;;;23.25;62.22
15678;BME280;7939;50.814;6.368;2023-09-18T06:14:04;98761.81;;;23.26;62.63
15678;BME280;7939;50.814;6.368;2023-09-18T06:16:31;98762.63;;;23.27;62.72
15678;BME280;7939;50.814;6.368;2023-09-18T06:18:58;98773.13;;;23.25;62.55
15678;BME280;7939;50.814;6.368;2023-09-18T06:21:25;98787.13;;;23.24;62.49
15678;BME280;7939;50.814;6.368;2023-09-18T06:23:52;98780.25;;;23.23;62.52
15678;BME280;7939;50.814;6.368;2023-09-18T06:26:18;98789.66;;;23.26;62.30
15678;BME280;7939;50.814;6.368;2023-09-18T06:28:45;98784.44;;;23.26;62.43
15678;BME280;7939;50.814;6.368;2023-09-18T06:31:13;98777.53;;;23.25;62.07
15678;BME280;7939;50.814;6.368;2023-09-18T06:33:39;98775.84;;;23.24;62.06
15678;BME280;7939;50.814;6.368;2023-09-18T06:36:06;98787.94;;;23.25;62.16
15678;BME280;7939;50.814;6.368;2023-09-18T06:38:33;98781.91;;;23.24;62.01
15678;BME280;7939;50.814;6.368;2023-09-18T06:41:00;98779.41;;;23.23;62.04
15678;BME280;7939;50.814;6.368;2023-09-18T06:43:26;98786.41;;;23.22;62.36
15678;BME280;7939;50.814;6.368;2023-09-18T06:45:53;98785.56;;;23.22;62.25
15678;BME280;7939;50.814;6.368;2023-09-18T06:48:21;98790.78;;;23.22;62.25
15678;BME280;7939;50.814;6.368;2023-09-18T06:50:48;98783.91;;;23.21;61.83
15678;BME280;7939;50.814;6.368;2023-09-18T06:53:14;98783.06;;;23.20;62.02
15678;BME280;7939;50.814;6.368;2023-09-18T06:55:41;98785.03;;;23.17;62.21
15678;BME280;7939;50.814;6.368;2023-09-18T06:58:08;98800.56;;;23.18;61.92
15678;BME280;7939;50.814;6.368;2023-09-18T07:00:35;98806.63;;;23.19;62.01
15678;BME280;7939;50.814;6.368;2023-09-18T07:03:02;98805.78;;;23.18;62.01
15678;BME280;7939;50.814;6.368;2023-09-18T07:05:30;98812.66;;;23.19;62.01
15678;BME280;7939;50.814;6.368;2023-09-18T07:07:57;98821.34;;;23.20;61.92
15678;BME280;7939;50.814;6.368;2023-09-18T07:10:24;98825.09;;;23.15;61.96
15678;BME280;7939;50.814;6.368;2023-09-18T07:12:51;98812.88;;;23.16;61.91
15678;BME280;7939;50.814;6.368;2023-09-18T07:15:17;98808.50;;;23.17;61.67
15678;BME280;7939;50.814;6.368;2023-09-18T07:17:44;98826.75;;;23.17;61.76
15678;BME280;7939;50.814;6.368;2023-09-18T07:20:11;98820.81;;;23.14;61.98
15678;BME280;7939;50.814;6.368;2023-09-18T07:22:46;98833.00;;;23.14;61.81
15678;BME280;7939;50.814;6.368;2023-09-18T07:25:13;98838.94;;;23.16;61.78
15678;BME280;7939;50.814;6.368;2023-09-18T07:27:40;98834.66;;;23.15;61.85
15678;BME280;7939;50.814;6.368;2023-09-18T07:30:10;98835.41;;;23.17;61.64
15678;BME280;7939;50.814;6.368;2023-09-18T07:32:39;98858.13;;;23.15;61.43
15678;BME280;7939;50.814;6.368;2023-09-18T07:35:07;98852.28;;;23.11;61.60
15678;BME280;7939;50.814;6.368;2023-09-18T07:37:35;98861.88;;;23.11;61.27
15678;BME280;7939;50.814;6.368;2023-09-18T07:40:04;98880.75;;;23.14;61.56
15678;BME280;7939;50.814;6.368;2023-09-18T07:42:31;98879.09;;;23.13;61.52
15678;BME280;7939;50.814;6.368;2023-09-18T07:44:58;98855.63;;;23.13;61.16
15678;BME280;7939;50.814;6.368;2023-09-18T07:47:25;98867.72;;;23.14;61.28
15678;BME280;7939;50.814;6.368;2023-09-18T07:49:52;98887.63;;;23.15;61.57
15678;BME280;7939;50.814;6.368;2023-09-18T07:52:19;98882.44;;;23.15;61.26
15678;BME280;7939;50.814;6.368;2023-09-18T07:54:46;98887.63;;;23.15;61.42
15678;BME280;7939;50.814;6.368;2023-09-18T07:57:15;98889.41;;;23.15;61.46
15678;BME280;7939;50.814;6.368;2023-09-18T07:59:42;98904.94;;;23.17;61.05
15678;BME280;7939;50.814;6.368;2023-09-18T08:02:09;98909.22;;;23.18;61.10
15678;BME280;7939;50.814;6.368;2023-09-18T08:04:37;98911.00;;;23.17;61.22
15678;BME280;7939;50.814;6.368;2023-09-18T08:07:04;98904.84;;;23.18;61.35
15678;BME280;7939;50.814;6.368;2023-09-18T08:09:32;98921.22;;;23.20;60.83
15678;BME280;7939;50.814;6.368;2023-09-18T08:12:02;98923.72;;;23.22;60.83
15678;BME280;7939;50.814;6.368;2023-09-18T08:14:30;98931.56;;;23.22;60.73
15678;BME280;7939;50.814;6.368;2023-09-18T08:16:57;98909.03;;;23.21;60.80
15678;BME280;7939;50.814;6.368;2023-09-18T08:19:25;98913.31;;;23.22;60.93
15678;BME280;7939;50.814;6.368;2023-09-18T08:21:53;98931.44;;;23.23;60.90
15678;BME280;7939;50.814;6.368;2023-09-18T08:24:20;98927.91;;;23.24;60.58
15678;BME280;7939;50.814;6.368;2023-09-18T08:26:47;98925.22;;;23.26;61.01
15678;BME280;7939;50.814;6.368;2023-09-18T08:29:13;98923.50;;;23.25;60.77
15678;BME280;7939;50.814;6.368;2023-09-18T08:31:42;98930.44;;;23.26;60.94
15678;BME280;7939;50.814;6.368;2023-09-18T08:34:08;98934.69;;;23.27;60.73
15678;BME280;7939;50.814;6.368;2023-09-18T08:36:35;98926.88;;;23.27;60.76
15678;BME280;7939;50.814;6.368;2023-09-18T08:39:03;98951.19;;;23.27;60.86
15678;BME280;7939;50.814;6.368;2023-09-18T08:41:32;98947.63;;;23.28;60.45
15678;BME280;7939;50.814;6.368;2023-09-18T08:44:01;98956.16;;;23.30;60.23
15678;BME280;7939;50.814;6.368;2023-09-18T08:46:29;98948.25;;;23.32;60.62
15678;BME280;7939;50.814;6.368;2023-09-18T08:48:58;98964.81;;;23.31;60.36
15678;BME280;7939;50.814;6.368;2023-09-18T08:51:26;98955.22;;;23.31;60.07
15678;BME280;7939;50.814;6.368;2023-09-18T08:53:54;98944.91;;;23.30;60.36
15678;BME280;7939;50.814;6.368;2023-09-18T08:56:21;98939.59;;;23.31;60.46
15678;BME280;7939;50.814;6.368;2023-09-18T08:58:49;98941.19;;;23.34;60.44
15678;BME280;7939;50.814;6.368;2023-09-18T09:01:15;98931.56;;;23.34;60.25
15678;BME280;7939;50.814;6.368;2023-09-18T09:03:42;98928.97;;;23.34;60.23
15678;BME280;7939;50.814;6.368;2023-09-18T09:06:12;98933.25;;;23.35;60.30
15678;BME280;7939;50.814;6.368;2023-09-18T09:08:39;98940.88;;;23.38;60.21
15678;BME280;7939;50.814;6.368;2023-09-18T09:11:06;98933.88;;;23.39;60.08
15678;BME280;7939;50.814;6.368;2023-09-18T09:13:32;98940.88;;;23.38;60.11
15678;BME280;7939;50.814;6.368;2023-09-18T09:15:59;98950.25;;;23.41;60.18
15678;BME280;7939;50.814;6.368;2023-09-18T09:18:28;98959.13;;;23.38;60.15
15678;BME280;7939;50.814;6.368;2023-09-18T09:20:58;98963.19;;;23.42;60.27
15678;BME280;7939;50.814;6.368;2023-09-18T09:23:27;98965.91;;;23.41;60.02
15678;BME280;7939;50.814;6.368;2023-09-18T09:26:11;98960.47;;;23.44;60.33
15678;BME280;7939;50.814;6.368;2023-09-18T09:28:38;98959.47;;;23.47;59.87
15678;BME280;7939;50.814;6.368;2023-09-18T09:31:08;98975.22;;;23.45;60.09
15678;BME280;7939;50.814;6.368;2023-09-18T09:33:36;98970.81;;;23.46;59.69
15678;BME280;7939;50.814;6.368;2023-09-18T09:36:06;98963.63;;;23.49;60.17
15678;BME280;7939;50.814;6.368;2023-09-18T09:38:34;98958.41;;;23.49;60.08
15678;BME280;7939;50.814;6.368;2023-09-18T09:41:03;98955.69;;;23.51;60.05
15678;BME280;7939;50.814;6.368;2023-09-18T09:43:32;98948.50;;;23.54;60.03
15678;BME280;7939;50.814;6.368;2023-09-18T09:46:01;98941.31;;;23.58;60.12
15678;BME280;7939;50.814;6.368;2023-09-18T09:48:28;98942.88;;;23.60;59.90
15678;BME280;7939;50.814;6.368;2023-09-18T09:50:58;98941.03;;;23.62;59.65
15678;BME280;7939;50.814;6.368;2023-09-18T09:53:43;98947.72;;;23.66;59.56
15678;BME280;7939;50.814;6.368;2023-09-18T09:56:12;98941.38;;;23.71;59.38
15678;BME280;7939;50.814;6.368;2023-09-18T09:58:39;98943.66;;;23.75;59.62
15678;BME280;7939;50.814;6.368;2023-09-18T10:01:11;98938.25;;;23.78;59.15
15678;BME280;7939;50.814;6.368;2023-09-18T10:03:43;98949.28;;;23.82;59.25
15678;BME280;7939;50.814;6.368;2023-09-18T10:06:10;98942.09;;;23.85;59.29
15678;BME280;7939;50.814;6.368;2023-09-18T10:08:39;98936.56;;;23.90;59.03
15678;BME280;7939;50.814;6.368;2023-09-18T10:11:08;98931.00;;;23.94;59.27
15678;BME280;7939;50.814;6.368;2023-09-18T10:13:41;98926.44;;;23.98;58.79
15678;BME280;7939;50.814;6.368;2023-09-18T10:16:09;98922.69;;;24.02;58.64
15678;BME280;7939;50.814;6.368;2023-09-18T10:18:41;98936.34;;;24.06;58.43
15678;BME280;7939;50.814;6.368;2023-09-18T10:21:19;98924.63;;;24.11;58.44
15678;BME280;7939;50.814;6.368;2023-09-18T10:23:56;98928.84;;;24.14;58.41
15678;BME280;7939;50.814;6.368;2023-09-18T10:26:26;98930.28;;;24.18;58.18
15678;BME280;7939;50.814;6.368;2023-09-18T10:28:56;98930.78;;;24.23;57.78
15678;BME280;7939;50.814;6.368;2023-09-18T10:31:26;98938.41;;;24.26;57.70
15678;BME280;7939;50.814;6.368;2023-09-18T10:33:54;98932.97;;;24.29;57.31
15678;BME280;7939;50.814;6.368;2023-09-18T10:36:22;98943.19;;;24.32;57.42
15678;BME280;7939;50.814;6.368;2023-09-18T10:38:51;98952.63;;;24.35;57.66
15678;BME280;7939;50.814;6.368;2023-09-18T10:41:20;98952.41;;;24.38;56.86
15678;BME280;7939;50.814;6.368;2023-09-18T10:43:53;98953.03;;;24.41;56.92
15678;BME280;7939;50.814;6.368;2023-09-18T10:46:22;98964.94;;;24.45;57.08
15678;BME280;7939;50.814;6.368;2023-09-18T10:48:50;98955.22;;;24.47;56.77
15678;BME280;7939;50.814;6.368;2023-09-18T10:51:20;98970.59;;;24.52;56.68
15678;BME280;7939;50.814;6.368;2023-09-18T10:53:47;98967.13;;;24.52;56.47
15678;BME280;7939;50.814;6.368;2023-09-18T10:56:14;98975.81;;;24.52;56.44
15678;BME280;7939;50.814;6.368;2023-09-18T10:58:43;98983.63;;;24.52;55.95
15678;BME280;7939;50.814;6.368;2023-09-18T11:01:12;98979.25;;;24.53;55.99
15678;BME280;7939;50.814;6.368;2023-09-18T11:03:39;98978.41;;;24.52;56.11
15678;BME280;7939;50.814;6.368;2023-09-18T11:06:08;98976.63;;;24.53;55.90
15678;BME280;7939;50.814;6.368;2023-09-18T11:08:43;98968.69;;;24.54;55.73
15678;BME280;7939;50.814;6.368;2023-09-18T11:11:13;98969.41;;;24.56;55.79
15678;BME280;7939;50.814;6.368;2023-09-18T11:13:41;98970.97;;;24.59;55.76
15678;BME280;7939;50.814;6.368;2023-09-18T11:16:18;98963.03;;;24.60;55.68
15678;BME280;7939;50.814;6.368;2023-09-18T11:18:51;98968.38;;;24.59;55.17
15678;BME280;7939;50.814;6.368;2023-09-18T11:21:24;98959.59;;;24.60;55.53
15678;BME280;7939;50.814;6.368;2023-09-18T11:23:57;98961.38;;;24.59;55.66
15678;BME280;7939;50.814;6.368;2023-09-18T11:26:28;98957.69;;;24.62;55.61
15678;BME280;7939;50.814;6.368;2023-09-18T11:28:55;98952.47;;;24.62;55.51
15678;BME280;7939;50.814;6.368;2023-09-18T11:31:41;98953.28;;;24.62;55.83
15678;BME280;7939;50.814;6.368;2023-09-18T11:34:13;98960.94;;;24.65;55.87
15678;BME280;7939;50.814;6.368;2023-09-18T11:36:40;98952.84;;;24.68;56.02
15678;BME280;7939;50.814;6.368;2023-09-18T11:39:06;98953.59;;;24.70;55.77
15678;BME280;7939;50.814;6.368;2023-09-18T11:41:35;98955.03;;;24.74;55.92
15678;BME280;7939;50.814;6.368;2023-09-18T11:44:37;98945.31;;;24.77;55.56
15678;BME280;7939;50.814;6.368;2023-09-18T11:47:11;98953.56;;;24.83;55.26
15678;BME280;7939;50.814;6.368;2023-09-18T11:49:49;98952.50;;;24.86;54.99
15678;BME280;7939;50.814;6.368;2023-09-18T11:52:21;98945.38;;;24.88;55.03
15678;BME280;7939;50.814;6.368;2023-09-18T11:54:48;98947.78;;;24.91;55.19
15678;BME280;7939;50.814;6.368;2023-09-18T11:57:17;98948.38;;;24.94;54.49
15678;BME280;7939;50.814;6.368;2023-09-18T11:59:44;98954.44;;;24.95;54.89
15678;BME280;7939;50.814;6.368;2023-09-18T12:02:13;98945.88;;;24.93;55.12
15678;BME280;7939;50.814;6.368;2023-09-18T12:04:46;98940.44;;;24.96;54.50
15678;BME280;7939;50.814;6.368;2023-09-18T12:07:13;98933.44;;;24.96;54.34
15678;BME280;7939;50.814;6.368;2023-09-18T12:09:40;98930.69;;;24.98;54.58
15678;BME280;7939;50.814;6.368;2023-09-18T12:12:07;98930.44;;;25.01;54.12
15678;BME280;7939;50.814;6.368;2023-09-18T12:14:34;98932.03;;;25.03;53.59
15678;BME280;7939;50.814;6.368;2023-09-18T12:17:02;98933.72;;;25.05;53.97
15678;BME280;7939;50.814;6.368;2023-09-18T12:19:31;98923.97;;;25.07;53.54
15678;BME280;7939;50.814;6.368;2023-09-18T12:21:59;98912.69;;;25.06;53.58
15678;BME280;7939;50.814;6.368;2023-09-18T12:24:26;98912.47;;;25.09;53.26
15678;BME280;7939;50.814;6.368;2023-09-18T12:26:54;98929.00;;;25.10;53.09
15678;BME280;7939;50.814;6.368;2023-09-18T12:29:21;98930.53;;;25.12;53.38
15678;BME280;7939;50.814;6.368;2023-09-18T12:31:48;98929.59;;;25.13;52.54
15678;BME280;7939;50.814;6.368;2023-09-18T12:34:17;98928.66;;;25.14;52.49
15678;BME280;7939;50.814;6.368;2023-09-18T12:36:46;98934.00;;;25.13;52.49
15678;BME280;7939;50.814;6.368;2023-09-18T12:39:13;98934.81;;;25.13;52.32
15678;BME280;7939;50.814;6.368;2023-09-18T12:41:43;98932.13;;;25.15;51.75
15678;BME280;7939;50.814;6.368;2023-09-18T12:44:10;98935.66;;;25.14;51.96
15678;BME280;7939;50.814;6.368;2023-09-18T12:46:38;98933.78;;;25.16;51.78
15678;BME280;7939;50.814;6.368;2023-09-18T12:49:19;98939.72;;;25.18;52.06
15678;BME280;7939;50.814;6.368;2023-09-18T12:51:57;98924.97;;;25.17;52.38
15678;BME280;7939;50.814;6.368;2023-09-18T12:54:38;98931.88;;;25.18;52.49
15678;BME280;7939;50.814;6.368;2023-09-18T12:57:05;98917.97;;;25.17;51.95
15678;BME280;7939;50.814;6.368;2023-09-18T12:59:33;98931.75;;;25.19;51.93
15678;BME280;7939;50.814;6.368;2023-09-18T13:02:01;98919.50;;;25.20;52.09
15678;BME280;7939;50.814;6.368;2023-09-18T13:04:30;98922.94;;;25.20;52.22
15678;BME280;7939;50.814;6.368;2023-09-18T13:07:06;98913.13;;;25.24;51.63
15678;BME280;7939;50.814;6.368;2023-09-18T13:09:33;98904.44;;;25.23;51.71
15678;BME280;7939;50.814;6.368;2023-09-18T13:12:00;98899.22;;;25.23;51.81
15678;BME280;7939;50.814;6.368;2023-09-18T13:14:28;98902.66;;;25.24;51.73